Fu Ning Wan — VRDN9 — position and weather

sailwx.info

Track history (hours):
 
Tides and Currents Weather Stations Pressure Air Temp Water Temp Dewpoint Dewpoint Depression Visibility Wind Speed Wind Dir Waves Ship Positions

Fu Ning Wan

Last reported at 2016-Dec-19 23:08 UTC. Time now 2017-Jan-19 00:20 UTC.
Position N 22°54' E 119°37'.
Warning: this ship's position is 30 days out of date.

Length 102 m; draft 5.8 m.

Type: Tanker. MMSI: 477003600.

Date/timePositionNaut miles runAvg speedWind from/ knotsBaromVisibWave heightAir tempDewpointWater temp
2016-Dec-19 23:08N 22°54' E 119°37'10 9.2
2016-Dec-19 22:03N 22°48' E 119°28'611.6
2016-Dec-19 21:33N 22°47' E 119°22'1411.4
2016-Dec-19 20:20N 22°43' E 119°08'1011.4
2016-Dec-19 19:26N 22°40' E 118°57'2311.4
2016-Dec-19 17:26N 22°33' E 118°34'1011.6
2016-Dec-19 16:33N 22°30' E 118°23'462 9.6
2016-Dec-17 16:27N 20°14' E 110°29'9 9.8
2016-Dec-17 15:33N 20°10' E 110°20'1010.1
2016-Dec-17 14:33N 20°09' E 110°10'  
Track history (hours):
 
Tides and Currents Weather Stations Pressure Air Temp Water Temp Dewpoint Dewpoint Depression Visibility Wind Speed Wind Dir Waves Ship Positions

Fu Ning Wan

Last reported at 2016-Dec-19 23:08 UTC. Time now 2017-Jan-19 00:20 UTC.
Position N 22°54' E 119°37'.
Warning: this ship's position is 30 days out of date.

Length 102 m; draft 5.8 m.

Type: Tanker. MMSI: 477003600.

Date/timePositionNaut miles runAvg speedWind from/ knotsBaromVisibWave heightAir tempDewpointWater temp
2016-Dec-19 23:08N 22°54' E 119°37'10 9.2
2016-Dec-19 22:03N 22°48' E 119°28'611.6
2016-Dec-19 21:33N 22°47' E 119°22'1411.4
2016-Dec-19 20:20N 22°43' E 119°08'1011.4
2016-Dec-19 19:26N 22°40' E 118°57'2311.4
2016-Dec-19 17:26N 22°33' E 118°34'1011.6
2016-Dec-19 16:33N 22°30' E 118°23'462 9.6
2016-Dec-17 16:27N 20°14' E 110°29'9 9.8
2016-Dec-17 15:33N 20°10' E 110°20'1010.1
2016-Dec-17 14:33N 20°09' E 110°10'  

Dump ship's entire track history